Creswell, North Carolina
Current Conditions -  °F | °C
As of 3:55 PM on Tuesday 21 Oct 2014 (Local Time) from KEDE Reporting Station
Scattered Clouds Scattered Clouds  
Wind Chill: 74°   Ceiling: Unl
Heat Index: 74°   Visibility: 10mi
Dew Point: 54°   Wind: 7mph
Humidity: 48%   Direction: 250°WSW
Pressure: 29.82"   Gusts: NA
Location:  35.87°N, 76.39°W
Report Text: KEDE 211955Z AUTO 25006KT 10SM SCT060 24/12 A2982 RMK AO2 T02350120
Loading
Personal Weather Stations






























Interactive Weather Map
Tropical Storm Tracking
New forecast layout! Learn more

10-Day Weather Forecast

Advertisements
Track Severe Weather on mobile